Silver Lake, New Jersey
Current Conditions -  °F | °C
As of 7:53 PM on Saturday 22 Nov 2014 (Local Time) from KFWN Reporting Station
Few Clouds Few Clouds  
Wind Chill: 34°   Ceiling: Unl
Heat Index: 39°   Visibility: 10mi
Dew Point: 17°   Wind: 7mph
Humidity: 41%   Direction: 220°SW
Pressure: 30.19"   Gusts: NA
Location:  41.1122°N, 74.4998°W
Report Text: KFWN 230053Z AUTO 22006KT 10SM FEW033 FEW120 04/M08 A3019 RMK AO2 SLP229 T00391083
Loading
Personal Weather Stations






























Interactive Weather Map New forecast layout! Learn more

10-Day Weather Forecast

Advertisements
Track Severe Weather on mobile